createdAt,value
2023-04-30T00:00:30.671Z,11.85
2023-04-30T00:01:30.716Z,11.86
2023-04-30T00:02:30.680Z,11.86
2023-04-30T00:03:30.760Z,11.90
2023-04-30T00:04:30.630Z,11.88
2023-04-30T00:05:30.599Z,11.86
2023-04-30T00:06:30.619Z,11.86
2023-04-30T00:07:30.585Z,11.88
2023-04-30T00:08:30.595Z,11.88
2023-04-30T00:09:30.563Z,11.86
2023-04-30T00:10:30.518Z,11.86
2023-04-30T00:11:30.552Z,11.86
2023-04-30T00:12:30.494Z,11.86
2023-04-30T00:13:30.535Z,11.85
2023-04-30T00:14:30.479Z,11.85
2023-04-30T00:15:30.483Z,11.85
2023-04-30T00:16:30.511Z,11.83
2023-04-30T00:17:30.534Z,11.83
2023-04-30T00:18:30.413Z,11.83
2023-04-30T00:19:30.435Z,11.82
2023-04-30T00:20:30.388Z,11.80
2023-04-30T00:21:30.412Z,11.79
2023-04-30T00:22:30.384Z,11.78
2023-04-30T00:23:30.387Z,11.76
2023-04-30T00:24:30.335Z,11.75
2023-04-30T00:25:30.355Z,11.76
2023-04-30T00:26:30.335Z,11.76
2023-04-30T00:27:30.318Z,11.76
2023-04-30T00:28:30.302Z,11.73
2023-04-30T00:29:30.295Z,11.72
2023-04-30T00:30:30.265Z,11.72
2023-04-30T00:31:30.290Z,11.72
2023-04-30T00:32:30.271Z,11.70
2023-04-30T00:33:30.251Z,11.69
2023-04-30T00:34:30.211Z,11.67
2023-04-30T00:35:30.220Z,11.65
2023-04-30T00:36:30.195Z,11.65
2023-04-30T00:37:30.185Z,11.65
2023-04-30T00:38:30.139Z,11.67
2023-04-30T00:39:30.170Z,11.67
2023-04-30T00:40:30.114Z,11.65
2023-04-30T00:41:30.169Z,11.62
2023-04-30T00:42:30.098Z,11.62
2023-04-30T00:43:30.106Z,11.61
2023-04-30T00:44:30.063Z,11.61
2023-04-30T00:45:30.073Z,11.57
2023-04-30T00:46:30.126Z,11.58
2023-04-30T00:47:30.086Z,11.60
2023-04-30T00:48:30.039Z,11.57
2023-04-30T00:49:30.062Z,11.60
2023-04-30T00:50:30.013Z,11.57
2023-04-30T00:51:30.000Z,11.58
2023-04-30T00:52:29.982Z,11.57
2023-04-30T00:53:29.971Z,11.55
2023-04-30T00:54:29.937Z,11.55
2023-04-30T00:55:29.969Z,11.55
2023-04-30T00:56:29.899Z,11.54
2023-04-30T00:57:29.910Z,11.55
2023-04-30T00:58:29.902Z,11.55
2023-04-30T00:59:29.917Z,11.57
2023-04-30T01:00:29.849Z,11.55
2023-04-30T01:01:29.953Z,11.54
2023-04-30T01:02:29.928Z,11.54
2023-04-30T01:03:29.902Z,11.51
2023-04-30T01:04:29.825Z,11.52
2023-04-30T01:05:29.816Z,11.52
2023-04-30T01:06:29.814Z,11.54
2023-04-30T01:07:29.786Z,11.55
2023-04-30T01:08:29.749Z,11.54
2023-04-30T01:09:29.773Z,11.57
2023-04-30T01:10:29.763Z,11.57
2023-04-30T01:11:29.758Z,11.54
2023-04-30T01:12:29.698Z,11.54
2023-04-30T01:13:29.706Z,11.54
2023-04-30T01:14:29.680Z,11.54
2023-04-30T01:15:29.718Z,11.52
2023-04-30T01:16:29.710Z,11.54
2023-04-30T01:17:29.673Z,11.54
2023-04-30T01:18:29.786Z,11.54
2023-04-30T01:19:29.631Z,11.52
2023-04-30T01:20:29.617Z,11.51
2023-04-30T01:21:29.602Z,11.52
2023-04-30T01:22:29.566Z,11.47
2023-04-30T01:23:29.602Z,11.46
2023-04-30T01:24:29.579Z,11.47
2023-04-30T01:25:29.569Z,11.46
2023-04-30T01:26:29.499Z,11.47
2023-04-30T01:27:29.528Z,11.46
2023-04-30T01:28:29.490Z,11.44
2023-04-30T01:29:29.521Z,11.43
2023-04-30T01:30:29.450Z,11.42
2023-04-30T01:31:29.529Z,11.40
2023-04-30T01:32:29.451Z,11.39
2023-04-30T01:33:29.441Z,11.39
2023-04-30T01:34:29.430Z,11.40
2023-04-30T01:35:29.419Z,11.42
2023-04-30T01:36:29.374Z,11.39
2023-04-30T01:37:29.389Z,11.39
2023-04-30T01:38:29.354Z,11.37
2023-04-30T01:39:29.387Z,11.37
2023-04-30T01:40:29.349Z,11.40
2023-04-30T01:41:29.336Z,11.39
2023-04-30T01:42:29.310Z,11.37
2023-04-30T01:43:29.296Z,11.37
2023-04-30T01:44:29.283Z,11.37
2023-04-30T01:45:29.293Z,11.35
2023-04-30T01:46:29.274Z,11.35
2023-04-30T01:47:29.314Z,11.35
2023-04-30T01:48:29.248Z,11.36
2023-04-30T01:49:29.232Z,11.39
2023-04-30T01:50:29.192Z,11.40
2023-04-30T01:51:29.201Z,11.42
2023-04-30T01:52:29.182Z,11.40
2023-04-30T01:53:29.187Z,11.42
2023-04-30T01:54:29.146Z,11.46
2023-04-30T01:55:29.162Z,11.46
2023-04-30T01:56:29.102Z,11.49
2023-04-30T01:57:29.141Z,11.49
2023-04-30T01:58:29.078Z,11.47
2023-04-30T01:59:29.096Z,11.46
2023-04-30T02:00:29.070Z,11.46
2023-04-30T02:01:29.186Z,11.47
2023-04-30T02:02:29.085Z,11.47
2023-04-30T02:03:29.144Z,11.47
2023-04-30T02:04:29.033Z,11.46
2023-04-30T02:05:29.044Z,11.47
2023-04-30T02:06:29.028Z,11.52
2023-04-30T02:07:28.990Z,11.52
2023-04-30T02:08:28.965Z,11.55
2023-04-30T02:09:28.979Z,11.55
2023-04-30T02:10:28.941Z,11.57
2023-04-30T02:11:28.928Z,11.60
2023-04-30T02:12:28.900Z,11.62
2023-04-30T02:13:28.927Z,11.62
2023-04-30T02:14:28.875Z,11.64
2023-04-30T02:15:28.896Z,11.65
2023-04-30T02:16:28.907Z,11.65
2023-04-30T02:17:28.860Z,11.65
2023-04-30T02:18:28.838Z,11.67
2023-04-30T02:19:28.834Z,11.65
2023-04-30T02:20:28.793Z,11.64
2023-04-30T02:21:28.802Z,11.62
2023-04-30T02:22:28.769Z,11.64
2023-04-30T02:23:28.800Z,11.62
2023-04-30T02:24:28.734Z,11.62
2023-04-30T02:25:28.748Z,11.61
2023-04-30T02:26:28.718Z,11.61
2023-04-30T02:27:28.726Z,11.64
2023-04-30T02:28:28.715Z,11.65
2023-04-30T02:29:28.699Z,11.64
2023-04-30T02:30:28.684Z,11.64
2023-04-30T02:31:28.696Z,11.62
2023-04-30T02:32:28.674Z,11.62
2023-04-30T02:33:28.714Z,11.64
2023-04-30T02:34:28.606Z,11.64
2023-04-30T02:35:28.634Z,11.62
2023-04-30T02:36:28.578Z,11.61
2023-04-30T02:37:28.584Z,11.61
2023-04-30T02:38:28.558Z,11.64
2023-04-30T02:39:28.575Z,11.64
2023-04-30T02:40:28.564Z,11.64
2023-04-30T02:41:28.559Z,11.64
2023-04-30T02:42:28.502Z,11.62
2023-04-30T02:43:28.504Z,11.61
2023-04-30T02:44:28.467Z,11.61
2023-04-30T02:45:28.493Z,11.61
2023-04-30T02:46:28.500Z,11.61
2023-04-30T02:47:28.461Z,11.60
2023-04-30T02:48:28.434Z,11.58
2023-04-30T02:49:28.416Z,11.60
2023-04-30T02:50:28.384Z,11.58
2023-04-30T02:51:28.421Z,11.57
2023-04-30T02:52:28.361Z,11.60
2023-04-30T02:53:28.368Z,11.60
2023-04-30T02:54:28.338Z,11.58
2023-04-30T02:55:28.369Z,11.57
2023-04-30T02:56:28.310Z,11.55
2023-04-30T02:57:28.315Z,11.57
2023-04-30T02:58:28.289Z,11.57
2023-04-30T02:59:28.339Z,11.57
2023-04-30T03:00:28.248Z,11.55
2023-04-30T03:01:28.282Z,11.55
2023-04-30T03:02:28.344Z,11.51
2023-04-30T03:03:28.269Z,11.52
2023-04-30T03:04:28.215Z,11.52
2023-04-30T03:05:28.216Z,11.52
2023-04-30T03:06:28.207Z,11.51
2023-04-30T03:07:28.199Z,11.51
2023-04-30T03:08:28.158Z,11.49
2023-04-30T03:09:28.216Z,11.47
2023-04-30T03:10:28.176Z,11.46
2023-04-30T03:11:28.141Z,11.46
2023-04-30T03:12:28.131Z,11.46
2023-04-30T03:13:28.136Z,11.47
2023-04-30T03:14:28.094Z,11.47
2023-04-30T03:15:28.056Z,11.49
2023-04-30T03:16:28.114Z,11.51
2023-04-30T03:17:28.104Z,11.49
2023-04-30T03:18:28.040Z,11.49
2023-04-30T03:19:28.009Z,11.51
2023-04-30T03:20:28.018Z,11.47
2023-04-30T03:21:27.978Z,11.46
2023-04-30T03:22:28.014Z,11.44
2023-04-30T03:23:28.020Z,11.44
2023-04-30T03:24:27.970Z,11.43
2023-04-30T03:25:28.001Z,11.43
2023-04-30T03:26:27.955Z,11.43
2023-04-30T03:27:27.952Z,11.43
2023-04-30T03:28:27.964Z,11.44
2023-04-30T03:29:27.880Z,11.44
2023-04-30T03:30:27.891Z,11.43
2023-04-30T03:31:27.903Z,11.42
2023-04-30T03:32:27.894Z,11.42
2023-04-30T03:33:27.849Z,11.42
2023-04-30T03:34:27.856Z,11.42
2023-04-30T03:35:27.804Z,11.39
2023-04-30T03:36:27.831Z,11.35
2023-04-30T03:37:27.770Z,11.33
2023-04-30T03:38:27.805Z,11.33
2023-04-30T03:39:27.754Z,11.33
2023-04-30T03:40:27.774Z,11.33
2023-04-30T03:41:27.735Z,11.29
2023-04-30T03:42:27.738Z,11.29
2023-04-30T03:43:27.704Z,11.28
2023-04-30T03:44:27.733Z,11.28
2023-04-30T03:45:27.666Z,11.29
2023-04-30T03:46:27.708Z,11.29
2023-04-30T03:47:27.679Z,11.29
2023-04-30T03:48:27.652Z,11.29
2023-04-30T03:49:27.640Z,11.27
2023-04-30T03:50:27.646Z,11.24
2023-04-30T03:51:27.587Z,11.24
2023-04-30T03:52:27.587Z,11.24
2023-04-30T03:53:27.548Z,11.22
2023-04-30T03:54:27.584Z,11.21
2023-04-30T03:55:27.524Z,11.17
2023-04-30T03:56:27.566Z,11.19
2023-04-30T03:57:27.520Z,11.15
2023-04-30T03:58:27.525Z,11.11
2023-04-30T03:59:27.511Z,11.10
2023-04-30T04:00:27.494Z,11.09
2023-04-30T04:01:27.465Z,11.04
2023-04-30T04:02:27.620Z,11.03
2023-04-30T04:03:27.440Z,11.02
2023-04-30T04:04:27.513Z,11.06
2023-04-30T04:05:27.413Z,11.07
2023-04-30T04:06:27.434Z,11.04
2023-04-30T04:07:27.431Z,11.02
2023-04-30T04:08:27.392Z,10.99
2023-04-30T04:09:27.343Z,10.99
2023-04-30T04:10:27.358Z,10.97
2023-04-30T04:11:27.353Z,10.94
2023-04-30T04:12:27.331Z,10.89
2023-04-30T04:13:27.293Z,10.85
2023-04-30T04:14:27.327Z,10.85
2023-04-30T04:15:27.272Z,10.82
2023-04-30T04:16:27.297Z,10.81
2023-04-30T04:17:27.296Z,10.81
2023-04-30T04:18:27.253Z,10.79
2023-04-30T04:19:27.241Z,10.82
2023-04-30T04:20:27.234Z,10.85
2023-04-30T04:21:27.231Z,10.85
2023-04-30T04:22:27.204Z,10.84
2023-04-30T04:23:27.160Z,10.84
2023-04-30T04:24:27.198Z,10.79
2023-04-30T04:25:27.144Z,10.76
2023-04-30T04:26:27.196Z,10.74
2023-04-30T04:27:27.122Z,10.76
2023-04-30T04:28:27.148Z,10.84
2023-04-30T04:29:27.083Z,10.86
2023-04-30T04:30:27.111Z,10.85
2023-04-30T04:31:27.118Z,10.86
2023-04-30T04:32:27.099Z,10.86
2023-04-30T04:33:27.028Z,10.89
2023-04-30T04:34:27.052Z,10.92
2023-04-30T04:35:27.050Z,10.97
2023-04-30T04:36:27.010Z,10.99
2023-04-30T04:37:26.983Z,10.96
2023-04-30T04:38:27.031Z,10.94
2023-04-30T04:39:26.958Z,10.91
2023-04-30T04:40:27.560Z,10.89
2023-04-30T04:41:26.938Z,10.85
2023-04-30T04:42:26.945Z,10.85
2023-04-30T04:43:26.914Z,10.85
2023-04-30T04:44:26.901Z,10.85
2023-04-30T04:45:26.910Z,10.89
2023-04-30T04:46:26.886Z,10.89
2023-04-30T04:47:26.887Z,10.96
2023-04-30T04:48:26.849Z,11.00
2023-04-30T04:49:26.847Z,11.03
2023-04-30T04:50:26.834Z,11.03
2023-04-30T04:51:26.797Z,11.02
2023-04-30T04:52:26.800Z,10.99
2023-04-30T04:53:26.763Z,10.99
2023-04-30T04:54:26.806Z,10.97
2023-04-30T04:55:26.738Z,10.97
2023-04-30T04:56:26.780Z,10.97
2023-04-30T04:57:26.739Z,10.96
2023-04-30T04:58:26.726Z,10.94
2023-04-30T04:59:26.694Z,10.96
2023-04-30T05:00:26.710Z,10.99
2023-04-30T05:01:26.677Z,11.00
2023-04-30T05:02:26.762Z,11.02
2023-04-30T05:03:26.740Z,11.02
2023-04-30T05:04:26.633Z,11.04
2023-04-30T05:05:26.603Z,11.04
2023-04-30T05:06:26.681Z,11.03
2023-04-30T05:07:26.591Z,11.03
2023-04-30T05:08:26.609Z,11.04
2023-04-30T05:09:26.556Z,11.06
2023-04-30T05:10:26.566Z,11.06
2023-04-30T05:11:26.535Z,11.06
2023-04-30T05:12:26.547Z,11.07
2023-04-30T05:13:26.491Z,11.07
2023-04-30T05:14:26.511Z,11.04
2023-04-30T05:15:26.472Z,11.04
2023-04-30T05:16:26.581Z,11.04
2023-04-30T05:17:26.537Z,11.07
2023-04-30T05:18:26.463Z,11.10
2023-04-30T05:19:26.431Z,11.11
2023-04-30T05:20:26.452Z,11.11
2023-04-30T05:21:26.391Z,11.15
2023-04-30T05:22:26.427Z,11.15
2023-04-30T05:23:26.384Z,11.18
2023-04-30T05:24:26.381Z,11.19
2023-04-30T05:25:26.345Z,11.21
2023-04-30T05:26:26.372Z,11.24
2023-04-30T05:27:26.324Z,11.27
2023-04-30T05:28:26.329Z,11.29
2023-04-30T05:29:26.288Z,11.32
2023-04-30T05:30:26.296Z,11.35
2023-04-30T05:31:26.383Z,11.37
2023-04-30T05:32:26.302Z,11.37
2023-04-30T05:33:26.246Z,11.39
2023-04-30T05:34:26.246Z,11.39
2023-04-30T05:35:26.224Z,11.42
2023-04-30T05:36:26.225Z,11.43
2023-04-30T05:37:26.209Z,11.46
2023-04-30T05:38:26.226Z,11.49
2023-04-30T05:39:26.778Z,11.51
2023-04-30T05:40:26.169Z,11.47
2023-04-30T05:41:26.126Z,11.43
2023-04-30T05:42:26.155Z,11.44
2023-04-30T05:43:26.154Z,11.46
2023-04-30T05:44:26.106Z,11.49
2023-04-30T05:45:26.099Z,11.49
2023-04-30T05:46:26.124Z,11.51
2023-04-30T05:47:26.040Z,11.52
2023-04-30T05:48:26.071Z,11.57
2023-04-30T05:49:26.026Z,11.57
2023-04-30T05:50:26.056Z,11.65
2023-04-30T05:51:26.022Z,11.72
2023-04-30T05:52:26.007Z,11.72
2023-04-30T05:53:25.983Z,11.73
2023-04-30T05:54:26.149Z,11.73
2023-04-30T05:55:26.040Z,11.76
2023-04-30T05:56:25.957Z,11.80
2023-04-30T05:57:25.924Z,11.79
2023-04-30T05:58:25.940Z,11.82
2023-04-30T05:59:25.916Z,11.83
2023-04-30T06:00:25.902Z,11.83
2023-04-30T06:01:25.871Z,11.86
2023-04-30T06:02:26.141Z,11.86
2023-04-30T06:03:25.845Z,11.85
2023-04-30T06:04:25.863Z,11.82
2023-04-30T06:05:25.922Z,11.79
2023-04-30T06:06:25.871Z,11.78
2023-04-30T06:07:25.810Z,11.76
2023-04-30T06:08:25.820Z,11.75
2023-04-30T06:09:25.759Z,11.76
2023-04-30T06:10:25.755Z,11.75
2023-04-30T06:11:25.772Z,11.73
2023-04-30T06:12:25.739Z,11.72
2023-04-30T06:13:25.730Z,11.72
2023-04-30T06:14:25.693Z,11.75
2023-04-30T06:15:25.724Z,11.78
2023-04-30T06:16:25.694Z,11.79
2023-04-30T06:17:25.807Z,11.83
2023-04-30T06:18:25.723Z,11.83
2023-04-30T06:19:25.652Z,11.83
2023-04-30T06:20:25.629Z,11.85
2023-04-30T06:21:25.629Z,11.88
2023-04-30T06:22:25.605Z,11.86
2023-04-30T06:23:25.609Z,11.85
2023-04-30T06:24:25.574Z,11.88
2023-04-30T06:25:26.203Z,11.91
2023-04-30T06:26:25.546Z,11.96
2023-04-30T06:27:25.571Z,11.96
2023-04-30T06:28:25.513Z,12.01
2023-04-30T06:29:25.539Z,12.05
2023-04-30T06:30:25.481Z,12.14
2023-04-30T06:31:25.529Z,12.17
2023-04-30T06:32:25.482Z,12.21
2023-04-30T06:33:25.473Z,12.29
2023-04-30T06:34:25.422Z,12.29
2023-04-30T06:35:25.427Z,12.28
2023-04-30T06:36:25.404Z,12.31
2023-04-30T06:37:25.434Z,12.34
2023-04-30T06:38:25.373Z,12.37
2023-04-30T06:39:25.419Z,12.38
2023-04-30T06:40:25.391Z,12.38
2023-04-30T06:41:25.377Z,12.39
2023-04-30T06:42:25.361Z,12.41
2023-04-30T06:43:25.365Z,12.45
2023-04-30T06:44:25.292Z,12.49
2023-04-30T06:45:25.312Z,12.53
2023-04-30T06:46:25.293Z,12.57
2023-04-30T06:47:25.347Z,12.64
2023-04-30T06:48:25.254Z,12.67
2023-04-30T06:49:25.252Z,12.72
2023-04-30T06:50:25.211Z,12.72
2023-04-30T06:51:25.274Z,12.75
2023-04-30T06:52:25.200Z,12.75
2023-04-30T06:53:25.214Z,12.78
2023-04-30T06:54:25.177Z,12.79
2023-04-30T06:55:25.188Z,12.79
2023-04-30T06:56:25.143Z,12.82
2023-04-30T06:57:25.145Z,12.83
2023-04-30T06:58:25.141Z,12.85
2023-04-30T06:59:25.137Z,12.87
2023-04-30T07:00:25.199Z,12.93
2023-04-30T07:01:25.165Z,12.96
2023-04-30T07:02:25.168Z,12.95
2023-04-30T07:03:25.273Z,13.01
2023-04-30T07:04:25.034Z,13.05
2023-04-30T07:05:25.050Z,13.08
2023-04-30T07:06:25.071Z,13.08
2023-04-30T07:07:25.018Z,13.11
2023-04-30T07:08:24.978Z,13.17
2023-04-30T07:09:25.003Z,13.23
2023-04-30T07:10:25.012Z,13.28
2023-04-30T07:11:24.964Z,13.32
2023-04-30T07:12:24.914Z,13.36
2023-04-30T07:13:24.977Z,13.39
2023-04-30T07:14:24.906Z,13.41
2023-04-30T07:15:24.909Z,13.42
2023-04-30T07:16:24.900Z,13.44
2023-04-30T07:17:27.410Z,13.45
2023-04-30T07:18:24.864Z,13.49
2023-04-30T07:19:24.854Z,13.54
2023-04-30T07:20:24.912Z,13.59
2023-04-30T07:21:24.836Z,13.64
2023-04-30T07:22:24.805Z,13.64
2023-04-30T07:23:24.829Z,13.67
2023-04-30T07:24:24.768Z,13.77
2023-04-30T07:25:24.762Z,13.81
2023-04-30T07:26:24.732Z,13.91
2023-04-30T07:27:24.744Z,13.99
2023-04-30T07:28:24.739Z,13.96
2023-04-30T07:29:24.684Z,14.00
2023-04-30T07:30:25.357Z,14.02
2023-04-30T07:31:24.722Z,14.07
2023-04-30T07:32:24.705Z,14.02
2023-04-30T07:33:24.628Z,13.96
2023-04-30T07:34:24.653Z,13.99
2023-04-30T07:35:24.634Z,13.99
2023-04-30T07:36:24.624Z,14.06
2023-04-30T07:37:24.597Z,14.04
2023-04-30T07:38:24.609Z,14.04
2023-04-30T07:39:24.574Z,14.12
2023-04-30T07:40:34.954Z,14.20
2023-04-30T07:41:24.532Z,14.27
2023-04-30T07:42:24.560Z,14.35
2023-04-30T07:43:24.521Z,14.42
2023-04-30T07:44:24.555Z,14.45
2023-04-30T07:45:24.497Z,14.55
2023-04-30T07:46:24.536Z,14.60
2023-04-30T07:47:24.522Z,14.64
2023-04-30T07:48:24.476Z,14.73
2023-04-30T07:49:24.452Z,14.88
2023-04-30T07:50:24.485Z,14.96
2023-04-30T07:51:24.395Z,14.92
2023-04-30T07:52:24.417Z,14.94
2023-04-30T07:53:24.424Z,15.06
2023-04-30T07:54:24.395Z,15.11
2023-04-30T07:55:24.355Z,15.10
2023-04-30T07:56:24.362Z,15.21
2023-04-30T07:57:24.334Z,15.29
2023-04-30T07:58:24.449Z,15.27
2023-04-30T07:59:24.312Z,15.16
2023-04-30T08:00:24.348Z,15.11
2023-04-30T08:01:24.264Z,15.13
2023-04-30T08:02:24.465Z,14.98
2023-04-30T08:03:24.340Z,14.77
2023-04-30T08:04:24.377Z,14.72
2023-04-30T08:05:24.253Z,14.69
2023-04-30T08:06:24.267Z,14.68
2023-04-30T08:07:24.208Z,14.75
2023-04-30T08:08:24.213Z,14.88
2023-04-30T08:09:24.191Z,15.03
2023-04-30T08:10:24.180Z,15.20
2023-04-30T08:11:24.167Z,15.34
2023-04-30T08:12:24.156Z,15.51
2023-04-30T08:13:24.109Z,15.60
2023-04-30T08:14:24.137Z,15.60
2023-04-30T08:15:24.091Z,15.68
2023-04-30T08:16:24.188Z,15.80
2023-04-30T08:17:24.118Z,15.87
2023-04-30T08:18:24.084Z,15.92
2023-04-30T08:19:24.058Z,16.04
2023-04-30T08:20:24.066Z,16.23
2023-04-30T08:21:24.047Z,16.15
2023-04-30T08:22:24.030Z,15.87
2023-04-30T08:23:23.997Z,15.78
2023-04-30T08:24:24.002Z,15.89
2023-04-30T08:25:23.967Z,15.87
2023-04-30T08:26:23.970Z,15.84
2023-04-30T08:27:23.976Z,15.80
2023-04-30T08:28:23.941Z,15.69
2023-04-30T08:29:23.906Z,15.68
2023-04-30T08:30:23.950Z,15.65
2023-04-30T08:31:23.914Z,15.50
2023-04-30T08:32:24.189Z,15.29
2023-04-30T08:33:24.040Z,15.21
2023-04-30T08:34:23.872Z,15.17
2023-04-30T08:35:23.848Z,15.16
2023-04-30T08:36:23.857Z,15.03
2023-04-30T08:37:23.800Z,14.94
2023-04-30T08:38:23.820Z,14.89
2023-04-30T08:39:23.778Z,14.84
2023-04-30T08:40:38.295Z,14.88
2023-04-30T08:41:23.767Z,14.99
2023-04-30T08:42:23.768Z,15.07
2023-04-30T08:43:23.722Z,15.27
2023-04-30T08:44:24.070Z,15.43
2023-04-30T08:45:23.689Z,15.43
2023-04-30T08:46:23.738Z,15.51
2023-04-30T08:47:23.694Z,15.39
2023-04-30T08:48:23.714Z,15.31
2023-04-30T08:49:24.861Z,15.21
2023-04-30T08:50:23.702Z,15.19
2023-04-30T08:51:23.616Z,15.16
2023-04-30T08:52:23.742Z,15.19
2023-04-30T08:53:23.601Z,15.21
2023-04-30T08:54:23.629Z,15.31
2023-04-30T08:55:23.591Z,15.50
2023-04-30T08:56:25.375Z,15.67
2023-04-30T08:57:24.399Z,15.68
2023-04-30T08:58:23.561Z,15.67
2023-04-30T08:59:23.518Z,15.56
2023-04-30T09:00:23.551Z,15.38
2023-04-30T09:01:23.529Z,15.41
2023-04-30T09:02:23.592Z,15.31
2023-04-30T09:03:23.848Z,15.17
2023-04-30T09:04:23.513Z,15.13
2023-04-30T09:05:23.440Z,15.09
2023-04-30T09:06:23.489Z,15.03
2023-04-30T09:07:23.429Z,14.98
2023-04-30T09:08:23.430Z,14.89
2023-04-30T09:09:23.380Z,14.84
2023-04-30T09:10:23.436Z,14.81
2023-04-30T09:11:23.357Z,14.78
2023-04-30T09:12:23.377Z,14.77
2023-04-30T09:13:23.352Z,14.78
2023-04-30T09:14:23.522Z,14.84
2023-04-30T09:15:23.315Z,14.89
2023-04-30T09:16:23.418Z,14.98
2023-04-30T09:17:23.379Z,15.17
2023-04-30T09:18:23.279Z,15.41
2023-04-30T09:19:23.262Z,15.56
2023-04-30T09:20:23.270Z,15.62
2023-04-30T09:21:23.253Z,15.64
2023-04-30T09:22:23.235Z,15.75
2023-04-30T09:23:23.193Z,15.90
2023-04-30T09:24:23.230Z,16.02
2023-04-30T09:25:23.182Z,16.21
2023-04-30T09:26:23.182Z,16.24
2023-04-30T09:27:23.201Z,16.12
2023-04-30T09:28:23.554Z,15.97
2023-04-30T09:29:23.167Z,15.83
2023-04-30T09:30:23.136Z,15.78
2023-04-30T09:31:23.122Z,15.72
2023-04-30T09:32:23.146Z,15.65
2023-04-30T09:33:23.068Z,15.57
2023-04-30T09:34:23.082Z,15.49
2023-04-30T09:35:23.041Z,15.38
2023-04-30T09:36:23.067Z,15.31
2023-04-30T09:37:23.034Z,15.23
2023-04-30T09:38:23.035Z,15.20
2023-04-30T09:39:22.987Z,15.20
2023-04-30T09:40:23.007Z,15.19
2023-04-30T09:41:22.983Z,15.21
2023-04-30T09:42:23.002Z,15.21
2023-04-30T09:43:22.943Z,15.21
2023-04-30T09:44:22.946Z,15.25
2023-04-30T09:45:22.946Z,15.27
2023-04-30T09:46:22.989Z,15.29
2023-04-30T09:47:22.962Z,15.34
2023-04-30T09:48:23.114Z,15.41
2023-04-30T09:49:22.887Z,15.46
2023-04-30T09:50:22.876Z,15.46
2023-04-30T09:51:22.832Z,15.43
2023-04-30T09:52:22.848Z,15.41
2023-04-30T09:53:22.824Z,15.41
2023-04-30T09:54:22.811Z,15.38
2023-04-30T09:55:22.802Z,15.35
2023-04-30T09:56:22.838Z,15.32
2023-04-30T09:57:22.770Z,15.31
2023-04-30T09:58:22.797Z,15.28
2023-04-30T09:59:22.750Z,15.25
2023-04-30T10:00:22.754Z,15.21
2023-04-30T10:01:22.823Z,15.21
2023-04-30T10:02:22.988Z,15.29
2023-04-30T10:03:22.700Z,15.41
2023-04-30T10:04:22.729Z,15.68
2023-04-30T10:05:22.695Z,15.90
2023-04-30T10:06:22.730Z,16.11
2023-04-30T10:07:23.085Z,16.25
2023-04-30T10:08:22.652Z,16.35
2023-04-30T10:09:22.599Z,16.43
2023-04-30T10:10:22.635Z,16.46
2023-04-30T10:11:22.607Z,16.49
2023-04-30T10:12:22.647Z,16.53
2023-04-30T10:13:22.536Z,16.57
2023-04-30T10:14:22.592Z,16.48
2023-04-30T10:15:22.534Z,16.42
2023-04-30T10:16:22.557Z,16.34
2023-04-30T10:17:22.542Z,16.27
2023-04-30T10:18:22.503Z,16.21
2023-04-30T10:19:22.481Z,16.14
2023-04-30T10:20:22.495Z,16.07
2023-04-30T10:21:22.459Z,16.05
2023-04-30T10:22:22.444Z,16.00
2023-04-30T10:23:22.415Z,15.94
2023-04-30T10:24:22.447Z,15.96
2023-04-30T10:25:22.388Z,15.89
2023-04-30T10:26:22.415Z,15.89
2023-04-30T10:27:22.385Z,15.93
2023-04-30T10:28:22.385Z,15.90
2023-04-30T10:29:22.356Z,15.89
2023-04-30T10:30:22.363Z,15.87
2023-04-30T10:31:22.384Z,15.90
2023-04-30T10:32:22.517Z,15.94
2023-04-30T10:33:22.326Z,15.97
2023-04-30T10:34:22.316Z,16.00
2023-04-30T10:35:22.302Z,15.97
2023-04-30T10:36:22.284Z,16.02
2023-04-30T10:37:22.289Z,16.07
2023-04-30T10:38:22.267Z,16.05
2023-04-30T10:39:22.211Z,16.04
2023-04-30T10:40:22.214Z,16.01
2023-04-30T10:41:22.217Z,16.04
2023-04-30T10:42:22.175Z,16.04
2023-04-30T10:43:22.219Z,16.00
2023-04-30T10:44:22.170Z,15.94
2023-04-30T10:45:22.123Z,15.92
2023-04-30T10:46:22.232Z,15.89
2023-04-30T10:47:22.092Z,15.87
2023-04-30T10:48:22.108Z,15.83
2023-04-30T10:49:22.095Z,15.84
2023-04-30T10:50:22.088Z,15.89
2023-04-30T10:51:22.063Z,15.92
2023-04-30T10:52:22.078Z,16.01
2023-04-30T10:53:22.030Z,16.08
2023-04-30T10:54:22.042Z,16.14
2023-04-30T10:55:21.997Z,16.17
2023-04-30T10:56:22.025Z,16.23
2023-04-30T10:57:21.969Z,16.20
2023-04-30T10:58:21.971Z,16.17
2023-04-30T10:59:21.930Z,16.12
2023-04-30T11:00:21.942Z,16.08
2023-04-30T11:01:21.976Z,16.07
2023-04-30T11:02:21.963Z,16.04
2023-04-30T11:03:21.887Z,16.02
2023-04-30T11:04:21.898Z,16.04
2023-04-30T11:05:21.853Z,16.07
2023-04-30T11:06:21.993Z,16.11
2023-04-30T11:07:21.837Z,16.17
2023-04-30T11:08:21.851Z,16.24
2023-04-30T11:09:21.799Z,16.30
2023-04-30T11:10:21.820Z,16.33
2023-04-30T11:11:21.803Z,16.43
2023-04-30T11:12:21.782Z,16.57
2023-04-30T11:13:21.758Z,16.68
2023-04-30T11:14:21.782Z,16.78
2023-04-30T11:15:21.733Z,16.82
2023-04-30T11:16:21.873Z,16.85
2023-04-30T11:17:21.763Z,16.81
2023-04-30T11:18:21.713Z,16.73
2023-04-30T11:19:21.687Z,16.57
2023-04-30T11:20:21.740Z,16.41
2023-04-30T11:21:21.632Z,16.35
2023-04-30T11:22:21.686Z,16.33
2023-04-30T11:23:28.554Z,16.31
2023-04-30T11:24:21.630Z,16.31
2023-04-30T11:25:21.651Z,16.33
2023-04-30T11:26:21.605Z,16.31
2023-04-30T11:27:21.579Z,16.31
2023-04-30T11:28:21.577Z,16.31
2023-04-30T11:29:21.555Z,16.30
2023-04-30T11:30:21.579Z,16.25
2023-04-30T11:31:21.541Z,16.28
2023-04-30T11:32:21.558Z,16.34
2023-04-30T11:33:21.506Z,16.38
2023-04-30T11:34:21.538Z,16.39
2023-04-30T11:35:21.467Z,16.45
2023-04-30T11:36:21.477Z,16.57
2023-04-30T11:37:21.446Z,16.70
2023-04-30T11:38:21.442Z,16.81
2023-04-30T11:39:21.434Z,16.91
2023-04-30T11:40:21.414Z,16.93
2023-04-30T11:41:21.381Z,16.93
2023-04-30T11:42:21.429Z,16.91
2023-04-30T11:43:21.379Z,16.88
2023-04-30T11:44:21.368Z,16.93
2023-04-30T11:45:21.371Z,16.96
2023-04-30T11:46:21.371Z,17.00
2023-04-30T11:47:21.342Z,17.07
2023-04-30T11:48:21.339Z,17.15
2023-04-30T11:49:21.329Z,17.28
2023-04-30T11:50:21.295Z,17.44
2023-04-30T11:51:21.275Z,17.62
2023-04-30T11:52:21.260Z,17.72
2023-04-30T11:53:21.265Z,17.86
2023-04-30T11:54:21.209Z,17.95
2023-04-30T11:55:21.302Z,18.10
2023-04-30T11:56:21.182Z,18.14
2023-04-30T11:57:21.198Z,17.82
2023-04-30T11:58:21.191Z,17.55
2023-04-30T11:59:21.186Z,17.36
2023-04-30T12:00:21.151Z,17.25
2023-04-30T12:01:21.418Z,17.15
2023-04-30T12:02:21.218Z,17.07
2023-04-30T12:03:21.165Z,17.11
2023-04-30T12:04:21.164Z,17.23
2023-04-30T12:05:21.103Z,17.40
2023-04-30T12:06:21.166Z,17.55
2023-04-30T12:07:22.674Z,17.66
2023-04-30T12:08:21.071Z,17.75
2023-04-30T12:09:21.049Z,17.87
2023-04-30T12:10:21.036Z,17.93
2023-04-30T12:11:21.012Z,17.95
2023-04-30T12:12:20.978Z,17.87
2023-04-30T12:13:21.001Z,17.75
2023-04-30T12:14:20.956Z,17.66
2023-04-30T12:15:20.984Z,17.52
2023-04-30T12:16:20.950Z,17.37
2023-04-30T12:17:20.968Z,17.26
2023-04-30T12:18:20.896Z,17.18
2023-04-30T12:19:20.984Z,17.11
2023-04-30T12:20:20.889Z,17.07
2023-04-30T12:21:20.880Z,17.06
2023-04-30T12:22:20.846Z,17.06
2023-04-30T12:23:20.869Z,17.06
2023-04-30T12:24:20.812Z,17.06
2023-04-30T12:25:20.856Z,17.03
2023-04-30T12:26:20.812Z,17.03
2023-04-30T12:27:20.806Z,17.06
2023-04-30T12:28:20.800Z,17.08
2023-04-30T12:29:20.790Z,17.14
2023-04-30T12:30:20.758Z,17.15
2023-04-30T12:31:20.751Z,17.15
2023-04-30T12:32:20.838Z,17.25
2023-04-30T12:33:20.952Z,17.37
2023-04-30T12:34:20.692Z,17.49
2023-04-30T12:35:20.701Z,17.51
2023-04-30T12:36:20.684Z,17.41
2023-04-30T12:37:20.669Z,17.30
2023-04-30T12:38:20.652Z,17.18
2023-04-30T12:39:20.683Z,17.11
2023-04-30T12:40:20.610Z,17.08
2023-04-30T12:41:20.606Z,17.03
2023-04-30T12:42:20.641Z,17.01
2023-04-30T12:43:20.573Z,17.01
2023-04-30T12:44:20.549Z,17.07
2023-04-30T12:45:20.603Z,17.14
2023-04-30T12:46:20.582Z,17.19
2023-04-30T12:47:20.558Z,17.25
2023-04-30T12:48:20.488Z,17.26
2023-04-30T12:49:20.548Z,17.22
2023-04-30T12:50:20.485Z,17.21
2023-04-30T12:51:20.486Z,17.25
2023-04-30T12:52:20.456Z,17.34